sensor_id;sensor_type;location;lat;lon;timestamp;temperature;humidity
4695;DHT22;2361;49.540;8.390;2023-05-10T00:00:47;15.70;99.90
4695;DHT22;2361;49.540;8.390;2023-05-10T00:03:14;15.70;99.90
4695;DHT22;2361;49.540;8.390;2023-05-10T00:05:41;15.70;99.90
4695;DHT22;2361;49.540;8.390;2023-05-10T00:08:08;15.70;99.90
4695;DHT22;2361;49.540;8.390;2023-05-10T00:10:35;15.70;99.90
4695;DHT22;2361;49.540;8.390;2023-05-10T00:13:03;15.70;99.90
4695;DHT22;2361;49.540;8.390;2023-05-10T00:15:32;15.70;99.90
4695;DHT22;2361;49.540;8.390;2023-05-10T00:17:59;15.60;99.90
4695;DHT22;2361;49.540;8.390;2023-05-10T00:20:26;15.60;99.90
4695;DHT22;2361;49.540;8.390;2023-05-10T00:22:53;15.60;99.90
4695;DHT22;2361;49.540;8.390;2023-05-10T00:25:20;15.50;99.90
4695;DHT22;2361;49.540;8.390;2023-05-10T00:27:48;15.50;99.90
4695;DHT22;2361;49.540;8.390;2023-05-10T00:30:16;15.50;99.90
4695;DHT22;2361;49.540;8.390;2023-05-10T00:32:43;15.50;99.90
4695;DHT22;2361;49.540;8.390;2023-05-10T00:35:10;15.50;99.90
4695;DHT22;2361;49.540;8.390;2023-05-10T00:37:37;15.50;99.90
4695;DHT22;2361;49.540;8.390;2023-05-10T00:40:05;15.50;99.90
4695;DHT22;2361;49.540;8.390;2023-05-10T00:42:33;15.50;99.90
4695;DHT22;2361;49.540;8.390;2023-05-10T00:45:00;15.50;99.90
4695;DHT22;2361;49.540;8.390;2023-05-10T00:47:28;15.40;99.90
4695;DHT22;2361;49.540;8.390;2023-05-10T00:49:55;15.40;99.90
4695;DHT22;2361;49.540;8.390;2023-05-10T00:52:23;15.30;99.90
4695;DHT22;2361;49.540;8.390;2023-05-10T00:54:51;15.30;99.90
4695;DHT22;2361;49.540;8.390;2023-05-10T00:57:19;15.20;99.90
4695;DHT22;2361;49.540;8.390;2023-05-10T00:59:46;15.20;99.90
4695;DHT22;2361;49.540;8.390;2023-05-10T01:02:13;15.20;99.90
4695;DHT22;2361;49.540;8.390;2023-05-10T01:04:40;15.20;99.90
4695;DHT22;2361;49.540;8.390;2023-05-10T01:07:08;15.20;99.90
4695;DHT22;2361;49.540;8.390;2023-05-10T01:09:35;15.10;99.90
4695;DHT22;2361;49.540;8.390;2023-05-10T01:12:02;15.10;99.90
4695;DHT22;2361;49.540;8.390;2023-05-10T01:14:33;15.10;99.90
4695;DHT22;2361;49.540;8.390;2023-05-10T01:17:04;15.10;99.90
4695;DHT22;2361;49.540;8.390;2023-05-10T01:19:34;15.10;99.90
4695;DHT22;2361;49.540;8.390;2023-05-10T01:25:18;15.10;99.90
4695;DHT22;2361;49.540;8.390;2023-05-10T01:34:02;15.10;99.90
4695;DHT22;2361;49.540;8.390;2023-05-10T01:36:53;15.00;99.90
4695;DHT22;2361;49.540;8.390;2023-05-10T01:39:36;15.00;99.90
4695;DHT22;2361;49.540;8.390;2023-05-10T01:42:16;15.00;99.90
4695;DHT22;2361;49.540;8.390;2023-05-10T01:48:12;15.10;99.90
4695;DHT22;2361;49.540;8.390;2023-05-10T01:50:43;15.10;99.90
4695;DHT22;2361;49.540;8.390;2023-05-10T01:53:12;15.10;99.90
4695;DHT22;2361;49.540;8.390;2023-05-10T01:55:45;15.10;99.90
4695;DHT22;2361;49.540;8.390;2023-05-10T01:58:19;15.10;99.90
4695;DHT22;2361;49.540;8.390;2023-05-10T02:00:49;15.20;99.90
4695;DHT22;2361;49.540;8.390;2023-05-10T02:03:20;15.10;99.90
4695;DHT22;2361;49.540;8.390;2023-05-10T02:05:49;15.20;99.90
4695;DHT22;2361;49.540;8.390;2023-05-10T02:08:18;15.20;99.90
4695;DHT22;2361;49.540;8.390;2023-05-10T02:10:46;15.20;99.90
4695;DHT22;2361;49.540;8.390;2023-05-10T02:13:15;15.20;99.90
4695;DHT22;2361;49.540;8.390;2023-05-10T02:15:42;15.20;99.90
4695;DHT22;2361;49.540;8.390;2023-05-10T02:18:10;15.20;99.90
4695;DHT22;2361;49.540;8.390;2023-05-10T02:20:39;15.20;99.90
4695;DHT22;2361;49.540;8.390;2023-05-10T02:23:07;15.20;99.90
4695;DHT22;2361;49.540;8.390;2023-05-10T02:25:36;15.20;99.90
4695;DHT22;2361;49.540;8.390;2023-05-10T02:28:06;15.20;99.90
4695;DHT22;2361;49.540;8.390;2023-05-10T02:30:34;15.10;99.90
4695;DHT22;2361;49.540;8.390;2023-05-10T02:33:04;15.10;99.90
4695;DHT22;2361;49.540;8.390;2023-05-10T02:35:32;15.10;99.90
4695;DHT22;2361;49.540;8.390;2023-05-10T02:38:00;15.10;99.90
4695;DHT22;2361;49.540;8.390;2023-05-10T02:40:28;15.10;99.90
4695;DHT22;2361;49.540;8.390;2023-05-10T02:42:56;15.10;99.90
4695;DHT22;2361;49.540;8.390;2023-05-10T02:45:27;15.10;99.90
4695;DHT22;2361;49.540;8.390;2023-05-10T02:47:56;15.00;99.90
4695;DHT22;2361;49.540;8.390;2023-05-10T02:50:27;15.00;99.90
4695;DHT22;2361;49.540;8.390;2023-05-10T02:53:00;15.00;99.90
4695;DHT22;2361;49.540;8.390;2023-05-10T02:55:33;15.00;99.90
4695;DHT22;2361;49.540;8.390;2023-05-10T02:58:03;15.00;99.90
4695;DHT22;2361;49.540;8.390;2023-05-10T03:00:31;15.00;99.90
4695;DHT22;2361;49.540;8.390;2023-05-10T03:02:59;14.90;99.90
4695;DHT22;2361;49.540;8.390;2023-05-10T03:05:27;14.90;99.90
4695;DHT22;2361;49.540;8.390;2023-05-10T03:07:54;14.80;99.90
4695;DHT22;2361;49.540;8.390;2023-05-10T03:10:27;14.70;99.90
4695;DHT22;2361;49.540;8.390;2023-05-10T03:13:12;14.70;99.90
4695;DHT22;2361;49.540;8.390;2023-05-10T03:19:00;14.70;99.90
4695;DHT22;2361;49.540;8.390;2023-05-10T03:21:31;14.50;99.90
4695;DHT22;2361;49.540;8.390;2023-05-10T03:24:06;14.60;99.90
4695;DHT22;2361;49.540;8.390;2023-05-10T03:26:35;14.50;99.90
4695;DHT22;2361;49.540;8.390;2023-05-10T03:29:04;14.50;99.90
4695;DHT22;2361;49.540;8.390;2023-05-10T03:31:33;14.50;99.90
4695;DHT22;2361;49.540;8.390;2023-05-10T03:34:00;14.50;99.90
4695;DHT22;2361;49.540;8.390;2023-05-10T03:36:27;14.50;99.90
4695;DHT22;2361;49.540;8.390;2023-05-10T03:38:54;14.50;99.90
4695;DHT22;2361;49.540;8.390;2023-05-10T03:41:21;14.50;99.90
4695;DHT22;2361;49.540;8.390;2023-05-10T03:43:48;14.40;99.90
4695;DHT22;2361;49.540;8.390;2023-05-10T03:46:17;14.40;99.90
4695;DHT22;2361;49.540;8.390;2023-05-10T03:48:44;14.40;99.90
4695;DHT22;2361;49.540;8.390;2023-05-10T03:51:11;14.40;99.90
4695;DHT22;2361;49.540;8.390;2023-05-10T03:53:38;14.40;99.90
4695;DHT22;2361;49.540;8.390;2023-05-10T03:56:05;14.40;99.90
4695;DHT22;2361;49.540;8.390;2023-05-10T03:58:33;14.30;99.90
4695;DHT22;2361;49.540;8.390;2023-05-10T04:01:00;14.40;99.90
4695;DHT22;2361;49.540;8.390;2023-05-10T04:03:28;14.40;99.90
4695;DHT22;2361;49.540;8.390;2023-05-10T04:06:02;14.40;99.90
4695;DHT22;2361;49.540;8.390;2023-05-10T04:08:29;14.30;99.90
4695;DHT22;2361;49.540;8.390;2023-05-10T04:11:11;14.30;99.90
4695;DHT22;2361;49.540;8.390;2023-05-10T04:13:41;14.20;99.90
4695;DHT22;2361;49.540;8.390;2023-05-10T04:16:11;14.20;99.90
4695;DHT22;2361;49.540;8.390;2023-05-10T04:18:38;14.20;99.90
4695;DHT22;2361;49.540;8.390;2023-05-10T04:21:11;14.20;99.90
4695;DHT22;2361;49.540;8.390;2023-05-10T04:23:40;14.20;99.90
4695;DHT22;2361;49.540;8.390;2023-05-10T04:26:07;14.20;99.90
4695;DHT22;2361;49.540;8.390;2023-05-10T04:28:34;14.20;99.90
4695;DHT22;2361;49.540;8.390;2023-05-10T04:31:05;14.20;99.90
4695;DHT22;2361;49.540;8.390;2023-05-10T04:33:34;14.30;99.90
4695;DHT22;2361;49.540;8.390;2023-05-10T04:36:02;14.30;99.90
4695;DHT22;2361;49.540;8.390;2023-05-10T04:38:30;14.30;99.90
4695;DHT22;2361;49.540;8.390;2023-05-10T04:41:05;14.30;99.90
4695;DHT22;2361;49.540;8.390;2023-05-10T04:43:33;14.30;99.90
4695;DHT22;2361;49.540;8.390;2023-05-10T04:46:00;14.20;99.90
4695;DHT22;2361;49.540;8.390;2023-05-10T04:48:27;14.30;99.90
4695;DHT22;2361;49.540;8.390;2023-05-10T04:50:54;14.30;99.90
4695;DHT22;2361;49.540;8.390;2023-05-10T04:53:22;14.30;99.90
4695;DHT22;2361;49.540;8.390;2023-05-10T04:55:49;14.30;99.90
4695;DHT22;2361;49.540;8.390;2023-05-10T04:58:16;14.40;99.90
4695;DHT22;2361;49.540;8.390;2023-05-10T05:00:43;14.50;99.90
4695;DHT22;2361;49.540;8.390;2023-05-10T05:03:10;14.60;99.90
4695;DHT22;2361;49.540;8.390;2023-05-10T05:05:37;14.60;99.90
4695;DHT22;2361;49.540;8.390;2023-05-10T05:08:04;14.60;99.90
4695;DHT22;2361;49.540;8.390;2023-05-10T05:10:31;14.60;99.90
4695;DHT22;2361;49.540;8.390;2023-05-10T05:12:58;14.70;99.90
4695;DHT22;2361;49.540;8.390;2023-05-10T05:15:25;14.70;99.90
4695;DHT22;2361;49.540;8.390;2023-05-10T05:17:53;14.80;99.90
4695;DHT22;2361;49.540;8.390;2023-05-10T05:20:20;14.90;99.90
4695;DHT22;2361;49.540;8.390;2023-05-10T05:22:47;14.90;99.90
4695;DHT22;2361;49.540;8.390;2023-05-10T05:25:14;15.00;99.90
4695;DHT22;2361;49.540;8.390;2023-05-10T05:27:42;15.10;99.90
4695;DHT22;2361;49.540;8.390;2023-05-10T05:30:09;15.10;99.90
4695;DHT22;2361;49.540;8.390;2023-05-10T05:32:37;15.30;99.90
4695;DHT22;2361;49.540;8.390;2023-05-10T05:35:04;15.30;99.90
4695;DHT22;2361;49.540;8.390;2023-05-10T05:37:31;15.30;99.90
4695;DHT22;2361;49.540;8.390;2023-05-10T05:39:59;15.20;99.90
4695;DHT22;2361;49.540;8.390;2023-05-10T05:42:27;15.20;99.90
4695;DHT22;2361;49.540;8.390;2023-05-10T05:44:54;15.20;99.90
4695;DHT22;2361;49.540;8.390;2023-05-10T05:47:21;15.30;99.90
4695;DHT22;2361;49.540;8.390;2023-05-10T05:49:48;15.30;99.90
4695;DHT22;2361;49.540;8.390;2023-05-10T05:52:15;15.40;99.90
4695;DHT22;2361;49.540;8.390;2023-05-10T05:54:42;15.40;99.90
4695;DHT22;2361;49.540;8.390;2023-05-10T05:57:09;15.40;99.90
4695;DHT22;2361;49.540;8.390;2023-05-10T05:59:37;15.50;99.90
4695;DHT22;2361;49.540;8.390;2023-05-10T06:02:09;15.50;99.90
4695;DHT22;2361;49.540;8.390;2023-05-10T06:04:36;15.60;99.90
4695;DHT22;2361;49.540;8.390;2023-05-10T06:07:03;15.70;99.90
4695;DHT22;2361;49.540;8.390;2023-05-10T06:09:30;15.80;99.90
4695;DHT22;2361;49.540;8.390;2023-05-10T06:11:57;15.90;99.90
4695;DHT22;2361;49.540;8.390;2023-05-10T06:14:24;15.90;99.90
4695;DHT22;2361;49.540;8.390;2023-05-10T06:16:51;16.00;99.90
4695;DHT22;2361;49.540;8.390;2023-05-10T06:19:18;16.00;99.90
4695;DHT22;2361;49.540;8.390;2023-05-10T06:21:45;16.10;99.90
4695;DHT22;2361;49.540;8.390;2023-05-10T06:24:12;16.10;99.90
4695;DHT22;2361;49.540;8.390;2023-05-10T06:26:39;15.90;99.90
4695;DHT22;2361;49.540;8.390;2023-05-10T06:29:06;15.90;99.90
4695;DHT22;2361;49.540;8.390;2023-05-10T06:31:33;15.90;99.90
4695;DHT22;2361;49.540;8.390;2023-05-10T06:34:00;16.00;99.90
4695;DHT22;2361;49.540;8.390;2023-05-10T06:36:27;16.10;99.90
4695;DHT22;2361;49.540;8.390;2023-05-10T06:38:54;16.10;99.90
4695;DHT22;2361;49.540;8.390;2023-05-10T06:41:21;16.30;99.90
4695;DHT22;2361;49.540;8.390;2023-05-10T06:43:50;16.40;99.90
4695;DHT22;2361;49.540;8.390;2023-05-10T06:46:17;16.50;99.90
4695;DHT22;2361;49.540;8.390;2023-05-10T06:48:44;16.50;99.90
4695;DHT22;2361;49.540;8.390;2023-05-10T06:51:12;16.60;99.90
4695;DHT22;2361;49.540;8.390;2023-05-10T06:53:39;16.50;99.90
4695;DHT22;2361;49.540;8.390;2023-05-10T06:56:06;16.50;99.90
4695;DHT22;2361;49.540;8.390;2023-05-10T06:58:33;16.50;99.90
4695;DHT22;2361;49.540;8.390;2023-05-10T07:01:04;16.60;99.90
4695;DHT22;2361;49.540;8.390;2023-05-10T07:03:31;16.60;99.90
4695;DHT22;2361;49.540;8.390;2023-05-10T07:06:02;16.60;99.90
4695;DHT22;2361;49.540;8.390;2023-05-10T07:08:31;16.80;99.90
4695;DHT22;2361;49.540;8.390;2023-05-10T07:11:05;17.00;99.90
4695;DHT22;2361;49.540;8.390;2023-05-10T07:13:36;17.30;99.90
4695;DHT22;2361;49.540;8.390;2023-05-10T07:16:05;17.90;99.90
4695;DHT22;2361;49.540;8.390;2023-05-10T07:18:33;18.60;99.90
4695;DHT22;2361;49.540;8.390;2023-05-10T07:21:00;19.00;99.90
4695;DHT22;2361;49.540;8.390;2023-05-10T07:23:28;19.40;99.90
4695;DHT22;2361;49.540;8.390;2023-05-10T07:25:55;19.70;99.90
4695;DHT22;2361;49.540;8.390;2023-05-10T07:28:23;20.10;99.90
4695;DHT22;2361;49.540;8.390;2023-05-10T07:30:50;20.50;99.90
4695;DHT22;2361;49.540;8.390;2023-05-10T07:33:17;20.80;99.90
4695;DHT22;2361;49.540;8.390;2023-05-10T07:35:45;20.90;99.90
4695;DHT22;2361;49.540;8.390;2023-05-10T07:38:12;20.90;99.90
4695;DHT22;2361;49.540;8.390;2023-05-10T07:40:39;20.80;99.90
4695;DHT22;2361;49.540;8.390;2023-05-10T07:43:06;20.80;99.90
4695;DHT22;2361;49.540;8.390;2023-05-10T07:45:33;20.70;99.90
4695;DHT22;2361;49.540;8.390;2023-05-10T07:48:01;20.50;99.90
4695;DHT22;2361;49.540;8.390;2023-05-10T07:50:28;20.20;99.90
4695;DHT22;2361;49.540;8.390;2023-05-10T07:52:55;19.90;99.90
4695;DHT22;2361;49.540;8.390;2023-05-10T07:55:23;19.70;99.90
4695;DHT22;2361;49.540;8.390;2023-05-10T07:57:49;19.60;99.90
4695;DHT22;2361;49.540;8.390;2023-05-10T08:00:18;19.40;99.90
4695;DHT22;2361;49.540;8.390;2023-05-10T08:02:46;19.10;99.90
4695;DHT22;2361;49.540;8.390;2023-05-10T08:05:14;18.90;99.90
4695;DHT22;2361;49.540;8.390;2023-05-10T08:07:41;18.80;99.90
4695;DHT22;2361;49.540;8.390;2023-05-10T08:10:09;18.70;99.90
4695;DHT22;2361;49.540;8.390;2023-05-10T08:12:38;18.90;99.90
4695;DHT22;2361;49.540;8.390;2023-05-10T08:15:05;19.30;99.90
4695;DHT22;2361;49.540;8.390;2023-05-10T08:17:33;19.60;99.90
4695;DHT22;2361;49.540;8.390;2023-05-10T08:20:01;19.70;99.90
4695;DHT22;2361;49.540;8.390;2023-05-10T08:22:28;19.90;99.90
4695;DHT22;2361;49.540;8.390;2023-05-10T08:24:55;20.20;99.90
4695;DHT22;2361;49.540;8.390;2023-05-10T08:27:22;20.40;99.90
4695;DHT22;2361;49.540;8.390;2023-05-10T08:29:49;20.80;99.90
4695;DHT22;2361;49.540;8.390;2023-05-10T08:32:17;21.10;99.90
4695;DHT22;2361;49.540;8.390;2023-05-10T08:34:44;21.40;99.90
4695;DHT22;2361;49.540;8.390;2023-05-10T08:37:11;21.40;99.90
4695;DHT22;2361;49.540;8.390;2023-05-10T08:39:39;21.20;99.90
4695;DHT22;2361;49.540;8.390;2023-05-10T08:42:07;20.90;99.90
4695;DHT22;2361;49.540;8.390;2023-05-10T08:44:36;20.60;99.90
4695;DHT22;2361;49.540;8.390;2023-05-10T08:47:06;20.30;99.90
4695;DHT22;2361;49.540;8.390;2023-05-10T08:49:34;20.00;99.90
4695;DHT22;2361;49.540;8.390;2023-05-10T08:52:05;19.60;99.90
4695;DHT22;2361;49.540;8.390;2023-05-10T08:54:34;19.20;99.90
4695;DHT22;2361;49.540;8.390;2023-05-10T08:57:01;18.90;99.90
4695;DHT22;2361;49.540;8.390;2023-05-10T08:59:28;18.60;99.90
4695;DHT22;2361;49.540;8.390;2023-05-10T09:01:58;18.50;99.90
4695;DHT22;2361;49.540;8.390;2023-05-10T09:04:27;18.40;99.90
4695;DHT22;2361;49.540;8.390;2023-05-10T09:06:54;18.30;99.90
4695;DHT22;2361;49.540;8.390;2023-05-10T09:09:21;18.30;99.90
4695;DHT22;2361;49.540;8.390;2023-05-10T09:11:51;18.40;99.90
4695;DHT22;2361;49.540;8.390;2023-05-10T09:14:18;18.40;99.90
4695;DHT22;2361;49.540;8.390;2023-05-10T09:16:46;18.60;99.90
4695;DHT22;2361;49.540;8.390;2023-05-10T09:19:14;18.70;99.90
4695;DHT22;2361;49.540;8.390;2023-05-10T09:21:43;18.90;99.90
4695;DHT22;2361;49.540;8.390;2023-05-10T09:24:12;18.90;99.90
4695;DHT22;2361;49.540;8.390;2023-05-10T09:26:48;19.10;99.90
4695;DHT22;2361;49.540;8.390;2023-05-10T09:29:16;19.10;99.90
4695;DHT22;2361;49.540;8.390;2023-05-10T09:31:48;19.10;99.90
4695;DHT22;2361;49.540;8.390;2023-05-10T09:34:19;19.10;99.90
4695;DHT22;2361;49.540;8.390;2023-05-10T09:36:55;19.10;99.90
4695;DHT22;2361;49.540;8.390;2023-05-10T09:39:32;19.20;99.90
4695;DHT22;2361;49.540;8.390;2023-05-10T09:42:06;19.50;99.90
4695;DHT22;2361;49.540;8.390;2023-05-10T09:44:36;19.80;99.90
4695;DHT22;2361;49.540;8.390;2023-05-10T09:47:04;19.90;99.90
4695;DHT22;2361;49.540;8.390;2023-05-10T09:49:31;19.90;99.90
4695;DHT22;2361;49.540;8.390;2023-05-10T09:52:05;19.90;99.90
4695;DHT22;2361;49.540;8.390;2023-05-10T09:54:33;19.70;99.90
4695;DHT22;2361;49.540;8.390;2023-05-10T09:57:01;19.50;99.90
4695;DHT22;2361;49.540;8.390;2023-05-10T09:59:29;19.40;99.90
4695;DHT22;2361;49.540;8.390;2023-05-10T10:01:57;19.20;99.90
4695;DHT22;2361;49.540;8.390;2023-05-10T10:04:26;19.10;99.90
4695;DHT22;2361;49.540;8.390;2023-05-10T10:07:01;18.90;99.90
4695;DHT22;2361;49.540;8.390;2023-05-10T10:09:30;18.70;99.90
4695;DHT22;2361;49.540;8.390;2023-05-10T10:12:02;18.60;99.90
4695;DHT22;2361;49.540;8.390;2023-05-10T10:14:30;18.50;99.90
4695;DHT22;2361;49.540;8.390;2023-05-10T10:17:00;18.60;99.90
4695;DHT22;2361;49.540;8.390;2023-05-10T10:19:33;18.80;99.90
4695;DHT22;2361;49.540;8.390;2023-05-10T10:22:02;19.10;99.90
4695;DHT22;2361;49.540;8.390;2023-05-10T10:24:29;19.50;99.90
4695;DHT22;2361;49.540;8.390;2023-05-10T10:27:04;19.90;99.90
4695;DHT22;2361;49.540;8.390;2023-05-10T10:29:41;20.20;99.90
4695;DHT22;2361;49.540;8.390;2023-05-10T10:33:10;20.50;99.90
4695;DHT22;2361;49.540;8.390;2023-05-10T10:35:31;20.80;99.90
4695;DHT22;2361;49.540;8.390;2023-05-10T10:37:58;21.20;99.90
4695;DHT22;2361;49.540;8.390;2023-05-10T10:40:33;21.50;99.90
4695;DHT22;2361;49.540;8.390;2023-05-10T10:43:26;21.80;99.90
4695;DHT22;2361;49.540;8.390;2023-05-10T10:46:16;22.00;99.90
4695;DHT22;2361;49.540;8.390;2023-05-10T10:48:49;22.10;99.90
4695;DHT22;2361;49.540;8.390;2023-05-10T10:51:37;22.10;99.90
4695;DHT22;2361;49.540;8.390;2023-05-10T10:54:11;22.10;99.90
4695;DHT22;2361;49.540;8.390;2023-05-10T10:56:38;22.20;99.90
4695;DHT22;2361;49.540;8.390;2023-05-10T10:59:05;22.30;99.90
4695;DHT22;2361;49.540;8.390;2023-05-10T11:01:34;22.20;99.80
4695;DHT22;2361;49.540;8.390;2023-05-10T11:06:35;22.00;99.60
4695;DHT22;2361;49.540;8.390;2023-05-10T11:09:07;21.80;99.90
4695;DHT22;2361;49.540;8.390;2023-05-10T11:11:35;21.80;99.90
4695;DHT22;2361;49.540;8.390;2023-05-10T11:14:04;21.90;99.90
4695;DHT22;2361;49.540;8.390;2023-05-10T11:16:42;22.10;99.80
4695;DHT22;2361;49.540;8.390;2023-05-10T11:19:12;22.20;99.60
4695;DHT22;2361;49.540;8.390;2023-05-10T11:24:26;22.20;98.80
4695;DHT22;2361;49.540;8.390;2023-05-10T11:26:53;22.30;98.00
4695;DHT22;2361;49.540;8.390;2023-05-10T11:29:21;22.30;98.00
4695;DHT22;2361;49.540;8.390;2023-05-10T11:31:49;22.30;97.50
4695;DHT22;2361;49.540;8.390;2023-05-10T11:34:27;22.30;97.00
4695;DHT22;2361;49.540;8.390;2023-05-10T11:37:01;22.30;97.30
4695;DHT22;2361;49.540;8.390;2023-05-10T11:39:30;22.40;96.80
4695;DHT22;2361;49.540;8.390;2023-05-10T11:41:58;22.40;95.60
4695;DHT22;2361;49.540;8.390;2023-05-10T11:44:32;22.30;95.90
4695;DHT22;2361;49.540;8.390;2023-05-10T11:47:00;22.30;95.80
4695;DHT22;2361;49.540;8.390;2023-05-10T11:49:28;22.50;96.20
4695;DHT22;2361;49.540;8.390;2023-05-10T11:52:07;22.60;96.30
4695;DHT22;2361;49.540;8.390;2023-05-10T11:54:35;22.60;95.90
4695;DHT22;2361;49.540;8.390;2023-05-10T11:57:02;22.50;95.90
4695;DHT22;2361;49.540;8.390;2023-05-10T11:59:30;22.50;95.50
4695;DHT22;2361;49.540;8.390;2023-05-10T12:01:57;22.50;95.70
4695;DHT22;2361;49.540;8.390;2023-05-10T12:04:27;22.50;95.50
4695;DHT22;2361;49.540;8.390;2023-05-10T12:06:56;22.50;95.00
4695;DHT22;2361;49.540;8.390;2023-05-10T12:09:25;22.40;95.30
4695;DHT22;2361;49.540;8.390;2023-05-10T12:12:08;22.20;94.20
4695;DHT22;2361;49.540;8.390;2023-05-10T12:14:38;22.00;94.50
4695;DHT22;2361;49.540;8.390;2023-05-10T12:17:04;21.90;94.50
4695;DHT22;2361;49.540;8.390;2023-05-10T12:19:38;21.80;94.80
4695;DHT22;2361;49.540;8.390;2023-05-10T12:22:06;21.80;94.90
4695;DHT22;2361;49.540;8.390;2023-05-10T12:24:35;21.80;95.10
4695;DHT22;2361;49.540;8.390;2023-05-10T12:27:07;21.70;94.90
4695;DHT22;2361;49.540;8.390;2023-05-10T12:29:35;21.70;95.00
4695;DHT22;2361;49.540;8.390;2023-05-10T12:32:02;21.70;94.20
4695;DHT22;2361;49.540;8.390;2023-05-10T12:34:34;21.60;95.00
4695;DHT22;2361;49.540;8.390;2023-05-10T12:37:06;21.50;95.50
4695;DHT22;2361;49.540;8.390;2023-05-10T12:39:40;21.30;96.40
4695;DHT22;2361;49.540;8.390;2023-05-10T12:42:12;21.40;96.10
4695;DHT22;2361;49.540;8.390;2023-05-10T12:44:39;21.40;95.70
4695;DHT22;2361;49.540;8.390;2023-05-10T12:47:06;21.40;96.10
4695;DHT22;2361;49.540;8.390;2023-05-10T12:49:33;21.20;96.20
4695;DHT22;2361;49.540;8.390;2023-05-10T12:52:01;21.00;96.50
4695;DHT22;2361;49.540;8.390;2023-05-10T12:54:28;20.90;96.30
4695;DHT22;2361;49.540;8.390;2023-05-10T12:56:55;20.90;96.70
4695;DHT22;2361;49.540;8.390;2023-05-10T12:59:25;20.90;96.70
4695;DHT22;2361;49.540;8.390;2023-05-10T13:01:57;21.00;97.20
4695;DHT22;2361;49.540;8.390;2023-05-10T13:04:24;21.10;96.90
4695;DHT22;2361;49.540;8.390;2023-05-10T13:06:51;21.10;96.50
4695;DHT22;2361;49.540;8.390;2023-05-10T13:09:21;21.10;96.00
4695;DHT22;2361;49.540;8.390;2023-05-10T13:11:48;21.10;96.00
4695;DHT22;2361;49.540;8.390;2023-05-10T13:14:16;21.20;95.80
4695;DHT22;2361;49.540;8.390;2023-05-10T13:16:43;21.00;95.40
4695;DHT22;2361;49.540;8.390;2023-05-10T13:19:10;20.90;95.20
4695;DHT22;2361;49.540;8.390;2023-05-10T13:21:39;20.70;95.30
4695;DHT22;2361;49.540;8.390;2023-05-10T13:24:07;20.60;95.50
4695;DHT22;2361;49.540;8.390;2023-05-10T13:26:35;20.50;95.70
4695;DHT22;2361;49.540;8.390;2023-05-10T13:29:03;20.60;95.70
4695;DHT22;2361;49.540;8.390;2023-05-10T13:31:30;20.60;95.80
4695;DHT22;2361;49.540;8.390;2023-05-10T13:33:57;20.60;95.20
4695;DHT22;2361;49.540;8.390;2023-05-10T13:36:24;20.50;95.50
4695;DHT22;2361;49.540;8.390;2023-05-10T13:38:51;20.40;96.10
4695;DHT22;2361;49.540;8.390;2023-05-10T13:41:18;20.50;97.10
4695;DHT22;2361;49.540;8.390;2023-05-10T13:43:45;20.60;95.90
4695;DHT22;2361;49.540;8.390;2023-05-10T13:46:12;20.70;95.90
4695;DHT22;2361;49.540;8.390;2023-05-10T13:48:40;20.80;96.00
4695;DHT22;2361;49.540;8.390;2023-05-10T13:51:07;20.90;95.90
4695;DHT22;2361;49.540;8.390;2023-05-10T13:53:34;20.90;95.70
4695;DHT22;2361;49.540;8.390;2023-05-10T13:56:01;20.90;95.60
4695;DHT22;2361;49.540;8.390;2023-05-10T13:58:31;20.90;94.30
4695;DHT22;2361;49.540;8.390;2023-05-10T14:00:58;20.80;94.40
4695;DHT22;2361;49.540;8.390;2023-05-10T14:03:25;20.80;94.20
4695;DHT22;2361;49.540;8.390;2023-05-10T14:05:52;20.80;94.40
4695;DHT22;2361;49.540;8.390;2023-05-10T14:08:19;20.90;93.90
4695;DHT22;2361;49.540;8.390;2023-05-10T14:10:46;20.90;93.50
4695;DHT22;2361;49.540;8.390;2023-05-10T14:13:13;20.90;93.50
4695;DHT22;2361;49.540;8.390;2023-05-10T14:15:40;20.80;92.80
4695;DHT22;2361;49.540;8.390;2023-05-10T14:18:07;20.80;92.80
4695;DHT22;2361;49.540;8.390;2023-05-10T14:20:34;20.90;92.90
4695;DHT22;2361;49.540;8.390;2023-05-10T14:23:04;20.90;93.00
4695;DHT22;2361;49.540;8.390;2023-05-10T14:25:32;20.90;91.90
4695;DHT22;2361;49.540;8.390;2023-05-10T14:28:01;20.80;92.10
4695;DHT22;2361;49.540;8.390;2023-05-10T14:30:31;20.80;92.30
4695;DHT22;2361;49.540;8.390;2023-05-10T14:32:58;20.80;92.40
4695;DHT22;2361;49.540;8.390;2023-05-10T14:35:25;20.70;92.20
4695;DHT22;2361;49.540;8.390;2023-05-10T14:37:54;20.60;92.40
4695;DHT22;2361;49.540;8.390;2023-05-10T14:40:21;20.60;92.60
4695;DHT22;2361;49.540;8.390;2023-05-10T14:42:50;20.60;92.50
4695;DHT22;2361;49.540;8.390;2023-05-10T14:45:22;20.70;92.40
4695;DHT22;2361;49.540;8.390;2023-05-10T14:47:49;20.70;92.20
4695;DHT22;2361;49.540;8.390;2023-05-10T14:50:25;20.80;92.30
4695;DHT22;2361;49.540;8.390;2023-05-10T14:53:02;20.80;92.10
4695;DHT22;2361;49.540;8.390;2023-05-10T14:55:29;20.80;91.40
4695;DHT22;2361;49.540;8.390;2023-05-10T14:57:56;20.70;90.80
4695;DHT22;2361;49.540;8.390;2023-05-10T15:00:24;20.60;91.10
4695;DHT22;2361;49.540;8.390;2023-05-10T15:02:55;20.50;91.10
4695;DHT22;2361;49.540;8.390;2023-05-10T15:05:22;20.60;91.60
4695;DHT22;2361;49.540;8.390;2023-05-10T15:07:52;20.60;91.30
4695;DHT22;2361;49.540;8.390;2023-05-10T15:10:22;20.70;91.10
4695;DHT22;2361;49.540;8.390;2023-05-10T15:12:50;20.70;90.90
4695;DHT22;2361;49.540;8.390;2023-05-10T15:15:20;20.80;90.60
4695;DHT22;2361;49.540;8.390;2023-05-10T15:17:47;20.90;90.80
4695;DHT22;2361;49.540;8.390;2023-05-10T15:20:18;21.00;90.60
4695;DHT22;2361;49.540;8.390;2023-05-10T15:22:48;21.00;89.70
4695;DHT22;2361;49.540;8.390;2023-05-10T15:25:15;20.90;90.10
4695;DHT22;2361;49.540;8.390;2023-05-10T15:27:45;20.90;89.60
4695;DHT22;2361;49.540;8.390;2023-05-10T15:30:12;20.90;89.70
4695;DHT22;2361;49.540;8.390;2023-05-10T15:32:39;20.90;88.20
4695;DHT22;2361;49.540;8.390;2023-05-10T15:35:08;20.80;87.80
4695;DHT22;2361;49.540;8.390;2023-05-10T15:37:41;20.80;88.80
4695;DHT22;2361;49.540;8.390;2023-05-10T15:40:08;20.80;88.90
4695;DHT22;2361;49.540;8.390;2023-05-10T15:42:35;20.80;88.80
4695;DHT22;2361;49.540;8.390;2023-05-10T15:45:02;20.70;90.00
4695;DHT22;2361;49.540;8.390;2023-05-10T15:47:30;20.80;89.90
4695;DHT22;2361;49.540;8.390;2023-05-10T15:49:57;20.80;90.00
4695;DHT22;2361;49.540;8.390;2023-05-10T15:52:24;20.80;90.20
4695;DHT22;2361;49.540;8.390;2023-05-10T15:54:51;20.90;90.00
4695;DHT22;2361;49.540;8.390;2023-05-10T15:57:18;20.90;89.10
4695;DHT22;2361;49.540;8.390;2023-05-10T15:59:45;20.90;88.30
4695;DHT22;2361;49.540;8.390;2023-05-10T16:02:13;20.80;87.40
4695;DHT22;2361;49.540;8.390;2023-05-10T16:04:41;20.80;87.80
4695;DHT22;2361;49.540;8.390;2023-05-10T16:07:10;20.70;87.50
4695;DHT22;2361;49.540;8.390;2023-05-10T16:09:37;20.60;88.00
4695;DHT22;2361;49.540;8.390;2023-05-10T16:12:04;20.60;88.20
4695;DHT22;2361;49.540;8.390;2023-05-10T16:14:31;20.60;87.90
4695;DHT22;2361;49.540;8.390;2023-05-10T16:16:58;20.60;87.40
4695;DHT22;2361;49.540;8.390;2023-05-10T16:19:25;20.60;88.10
4695;DHT22;2361;49.540;8.390;2023-05-10T16:21:55;20.60;88.10
4695;DHT22;2361;49.540;8.390;2023-05-10T16:24:22;20.60;88.00
4695;DHT22;2361;49.540;8.390;2023-05-10T16:26:49;20.60;88.70
4695;DHT22;2361;49.540;8.390;2023-05-10T16:29:16;20.60;88.20
4695;DHT22;2361;49.540;8.390;2023-05-10T16:31:43;20.50;88.30
4695;DHT22;2361;49.540;8.390;2023-05-10T16:34:10;20.50;90.00